Forside
METAR-TAF:

METAR-TAF

Lufthavne :

Baraboo Wisconsin Dells Airport

Baraboo / Wisconsin Dells, Wisconsin, USA

Breddekreds: 43-31-19N, længdekreds: 089-46-15W, højde: 298 m

Aktuelle vejr

Denne rapport blev lavet for 19 minutter siden, kl. 03:55 UTC
Vind 13 kt fra sydøst med vindstød på up til 19 kt
Temperatur -5°C
Fugtighed 100%
Tryk 1019 hPa
Sigt: 1.2 km
Overskyet i en højde af 1300 ft
let sne

METAR: KDLL 180355Z AUTO 13013G19KT 3/4SM -SN OVC013 M05/M05 A3010 RMK AO2 T10461052

Tid: 22:14 (04:14 UTC)


TAF: fraværende

Vejrobservationer og prognoser fra mere end 4000 lufthavne (METAR og TAF).

De gule og røde prikker repræsenterer de meteorologiske stationer.

Flyt musen over at se navnet på stationen.

Så klik over at se vejr observationer og prognoser.

At skifte det kort: Klik på de grønne knapper med et sort kors for at zoome ind; på den grønne knap med en bindestreg for at zoome ud; eller på de grønne pile for tilstødende kort.


METAR-TAF: